createdAt,value
2022-08-23T00:01:50.886Z,2.67
2022-08-23T00:04:22.860Z,2.13
2022-08-23T00:06:58.235Z,2.30
2022-08-23T00:09:27.080Z,2.40
2022-08-23T00:12:05.669Z,2.33
2022-08-23T00:14:35.753Z,2.10
2022-08-23T00:19:29.109Z,2.38
2022-08-23T00:21:57.183Z,2.50
2022-08-23T00:24:25.094Z,2.38
2022-08-23T00:27:16.008Z,2.40
2022-08-23T00:29:54.620Z,2.35
2022-08-23T00:32:32.118Z,2.30
2022-08-23T00:35:00.971Z,2.50
2022-08-23T00:37:29.552Z,2.60
2022-08-23T00:39:56.727Z,2.83
2022-08-23T00:42:45.207Z,2.38
2022-08-23T00:45:34.546Z,2.22
2022-08-23T00:48:02.524Z,2.77
2022-08-23T00:50:49.459Z,2.58
2022-08-23T00:53:23.344Z,3.50
2022-08-23T00:55:54.763Z,2.30
2022-08-23T00:58:22.168Z,2.10
2022-08-23T01:00:51.728Z,2.25
2022-08-23T01:03:20.693Z,2.72
2022-08-23T01:06:03.520Z,2.92
2022-08-23T01:08:32.956Z,2.13
2022-08-23T01:11:08.885Z,2.80
2022-08-23T01:13:41.744Z,2.25
2022-08-23T01:16:20.808Z,2.47
2022-08-23T01:18:48.264Z,2.53
2022-08-23T01:21:21.920Z,2.53
2022-08-23T01:23:55.726Z,2.50
2022-08-23T01:26:25.356Z,2.67
2022-08-23T01:28:54.053Z,2.45
2022-08-23T01:31:23.038Z,2.60
2022-08-23T01:34:00.998Z,2.17
2022-08-23T01:36:28.704Z,2.83
2022-08-23T01:38:55.412Z,2.90
2022-08-23T01:41:22.484Z,2.55
2022-08-23T01:43:50.113Z,2.70
2022-08-23T01:46:19.919Z,2.65
2022-08-23T01:48:49.744Z,2.45
2022-08-23T01:51:18.934Z,2.70
2022-08-23T01:53:46.904Z,2.42
2022-08-23T01:56:15.115Z,2.65
2022-08-23T01:58:42.245Z,2.42
2022-08-23T02:01:09.035Z,2.70
2022-08-23T02:03:37.508Z,2.50
2022-08-23T02:06:04.737Z,2.40
2022-08-23T02:08:50.608Z,3.00
2022-08-23T02:11:22.178Z,2.60
2022-08-23T02:13:51.039Z,3.10
2022-08-23T02:16:27.098Z,2.22
2022-08-23T02:18:56.878Z,2.42
2022-08-23T02:21:24.802Z,2.42
2022-08-23T02:23:51.909Z,2.38
2022-08-23T02:26:19.618Z,2.20
2022-08-23T02:28:47.032Z,2.17
2022-08-23T02:31:13.714Z,2.10
2022-08-23T02:36:27.389Z,2.15
2022-08-23T02:38:55.755Z,2.30
2022-08-23T02:41:23.293Z,2.25
2022-08-23T02:43:53.567Z,2.25
2022-08-23T02:48:48.423Z,1.73
2022-08-23T02:51:17.774Z,2.00
2022-08-23T02:53:44.912Z,1.92
2022-08-23T02:56:21.811Z,2.00
2022-08-23T02:58:54.641Z,2.30
2022-08-23T03:01:31.809Z,2.17
2022-08-23T03:04:00.212Z,2.00
2022-08-23T03:06:28.104Z,2.55
2022-08-23T03:08:56.551Z,2.42
2022-08-23T03:11:25.337Z,2.20
2022-08-23T03:13:54.315Z,2.40
2022-08-23T03:16:21.689Z,2.38
2022-08-23T03:18:49.080Z,2.42
2022-08-23T03:21:17.649Z,1.90
2022-08-23T03:23:45.198Z,2.38
2022-08-23T03:26:14.285Z,2.70
2022-08-23T03:28:42.735Z,2.40
2022-08-23T03:31:11.048Z,2.47
2022-08-23T03:33:38.311Z,2.40
2022-08-23T03:36:08.730Z,2.55
2022-08-23T03:38:36.184Z,2.33
2022-08-23T03:41:02.943Z,2.40
2022-08-23T03:43:29.924Z,3.08
2022-08-23T03:45:57.009Z,3.10
2022-08-23T03:48:25.129Z,2.75
2022-08-23T03:50:54.794Z,2.97
2022-08-23T03:53:24.012Z,3.05
2022-08-23T03:55:53.350Z,2.25
2022-08-23T03:58:21.877Z,2.58
2022-08-23T04:00:49.400Z,2.63
2022-08-23T04:03:16.772Z,2.50
2022-08-23T04:05:43.614Z,2.53
2022-08-23T04:08:11.600Z,2.75
2022-08-23T04:10:39.104Z,2.65
2022-08-23T04:13:07.499Z,2.55
2022-08-23T04:15:34.769Z,2.70
2022-08-23T04:18:02.209Z,3.05
2022-08-23T04:20:29.201Z,2.72
2022-08-23T04:22:57.065Z,2.60
2022-08-23T04:25:34.037Z,2.45
2022-08-23T04:28:03.858Z,2.35
2022-08-23T04:30:32.175Z,3.10
2022-08-23T04:32:58.934Z,3.22
2022-08-23T04:35:28.263Z,2.80
2022-08-23T04:37:55.271Z,2.75
2022-08-23T04:40:40.711Z,2.80
2022-08-23T04:43:08.676Z,3.15
2022-08-23T04:45:39.073Z,3.30
2022-08-23T04:48:06.641Z,3.10
2022-08-23T04:50:38.783Z,2.65
2022-08-23T04:53:05.455Z,3.40
2022-08-23T04:55:32.472Z,3.70
2022-08-23T04:58:03.694Z,3.20
2022-08-23T05:00:30.786Z,3.20
2022-08-23T05:02:57.508Z,3.03
2022-08-23T05:05:24.533Z,3.28
2022-08-23T05:07:51.361Z,2.30
2022-08-23T05:10:18.481Z,2.70
2022-08-23T05:12:45.654Z,2.63
2022-08-23T05:15:13.284Z,2.50
2022-08-23T05:17:40.161Z,2.90
2022-08-23T05:20:08.512Z,2.85
2022-08-23T05:22:40.950Z,3.10
2022-08-23T05:25:08.730Z,2.53
2022-08-23T05:27:35.828Z,2.35
2022-08-23T05:30:03.235Z,2.55
2022-08-23T05:32:33.349Z,2.70
2022-08-23T05:35:00.825Z,2.38
2022-08-23T05:37:28.085Z,2.53
2022-08-23T05:39:54.948Z,2.80
2022-08-23T05:42:22.758Z,3.00
2022-08-23T05:44:49.469Z,2.72
2022-08-23T05:47:17.880Z,2.88
2022-08-23T05:49:51.827Z,2.65
2022-08-23T05:52:18.889Z,2.65
2022-08-23T05:54:45.871Z,2.78
2022-08-23T05:57:12.863Z,2.47
2022-08-23T05:59:41.719Z,2.78
2022-08-23T06:02:08.874Z,2.95
2022-08-23T06:04:36.081Z,3.05
2022-08-23T06:07:03.153Z,2.58
2022-08-23T06:09:29.912Z,2.58
2022-08-23T06:11:56.980Z,2.90
2022-08-23T06:14:23.752Z,2.92
2022-08-23T06:16:55.760Z,3.15
2022-08-23T06:19:23.872Z,2.90
2022-08-23T06:21:52.336Z,3.15
2022-08-23T06:24:20.037Z,4.38
2022-08-23T06:26:47.871Z,3.42
2022-08-23T06:29:17.686Z,4.10
2022-08-23T06:31:48.313Z,3.70
2022-08-23T06:34:27.735Z,3.63
2022-08-23T06:36:58.072Z,4.05
2022-08-23T06:39:27.187Z,3.42
2022-08-23T06:42:00.887Z,3.38
2022-08-23T06:44:28.518Z,3.60
2022-08-23T06:46:56.674Z,3.10
2022-08-23T06:49:24.744Z,3.55
2022-08-23T06:51:57.717Z,3.47
2022-08-23T06:54:27.306Z,3.33
2022-08-23T06:56:54.426Z,3.45
2022-08-23T06:59:21.790Z,3.53
2022-08-23T07:02:04.205Z,3.78
2022-08-23T07:04:36.219Z,3.85
2022-08-23T07:07:08.204Z,3.65
2022-08-23T07:09:37.853Z,3.25
2022-08-23T07:12:06.348Z,3.35
2022-08-23T07:14:33.255Z,3.00
2022-08-23T07:17:03.721Z,3.17
2022-08-23T07:19:33.473Z,3.20
2022-08-23T07:22:01.641Z,2.97
2022-08-23T07:24:33.007Z,2.85
2022-08-23T07:27:04.221Z,3.25
2022-08-23T07:29:30.964Z,3.42
2022-08-23T07:31:57.954Z,2.97
2022-08-23T07:34:26.537Z,2.90
2022-08-23T07:36:54.155Z,2.65
2022-08-23T07:39:22.907Z,3.40
2022-08-23T07:41:50.067Z,3.05
2022-08-23T07:44:18.120Z,2.75
2022-08-23T07:46:46.356Z,2.58
2022-08-23T07:49:13.822Z,3.00
2022-08-23T07:51:42.499Z,3.08
2022-08-23T07:54:11.519Z,2.55
2022-08-23T07:56:38.601Z,2.58
2022-08-23T07:59:08.962Z,2.97
2022-08-23T08:01:36.787Z,2.70
2022-08-23T08:04:06.237Z,2.90
2022-08-23T08:06:38.179Z,2.30
2022-08-23T08:09:06.382Z,2.47
2022-08-23T08:11:35.665Z,2.17
2022-08-23T08:14:05.975Z,2.58
2022-08-23T08:19:08.159Z,2.30
2022-08-23T08:21:35.880Z,2.17
2022-08-23T08:24:07.955Z,2.63
2022-08-23T08:26:34.821Z,2.20
2022-08-23T08:29:01.896Z,2.17
2022-08-23T08:31:28.712Z,1.90
2022-08-23T08:33:55.693Z,2.38
2022-08-23T08:36:30.255Z,1.90
2022-08-23T08:39:00.721Z,1.75
2022-08-23T08:41:42.337Z,1.70
2022-08-23T08:44:32.146Z,1.95
2022-08-23T08:46:59.270Z,1.65
2022-08-23T08:49:45.126Z,1.50
2022-08-23T08:52:22.855Z,1.70
2022-08-23T08:54:56.059Z,1.50
2022-08-23T08:57:27.597Z,1.60
2022-08-23T09:00:02.077Z,1.50
2022-08-23T09:02:33.782Z,1.25
2022-08-23T09:05:27.300Z,1.58
2022-08-23T09:08:28.117Z,1.50
2022-08-23T09:11:06.552Z,1.70
2022-08-23T09:13:53.717Z,1.50
2022-08-23T09:16:31.061Z,1.60
2022-08-23T09:19:01.730Z,1.60
2022-08-23T09:21:37.526Z,1.63
2022-08-23T09:24:05.265Z,1.95
2022-08-23T09:26:32.507Z,1.77
2022-08-23T09:29:22.524Z,1.55
2022-08-23T09:31:53.295Z,1.50
2022-08-23T09:34:42.812Z,1.70
2022-08-23T09:37:24.600Z,1.55
2022-08-23T09:40:19.611Z,1.40
2022-08-23T09:43:02.128Z,1.65
2022-08-23T09:45:35.813Z,1.52
2022-08-23T09:48:03.794Z,1.80
2022-08-23T09:50:32.369Z,1.40
2022-08-23T09:53:12.653Z,1.50
2022-08-23T09:55:43.011Z,1.40
2022-08-23T09:58:52.797Z,1.52
2022-08-23T10:01:38.224Z,1.42
2022-08-23T10:04:24.884Z,1.75
2022-08-23T10:06:52.065Z,1.70
2022-08-23T10:09:32.172Z,1.55
2022-08-23T10:12:00.763Z,1.50
2022-08-23T10:14:33.999Z,1.77
2022-08-23T10:17:35.066Z,1.40
2022-08-23T10:20:35.140Z,1.40
2022-08-23T10:23:23.501Z,2.10
2022-08-23T10:25:59.253Z,1.85
2022-08-23T10:29:16.671Z,1.30
2022-08-23T10:32:18.763Z,1.52
2022-08-23T10:35:19.737Z,2.00
2022-08-23T10:38:09.967Z,1.60
2022-08-23T10:40:52.784Z,1.60
2022-08-23T10:43:42.832Z,1.65
2022-08-23T10:46:11.069Z,1.73
2022-08-23T10:48:41.788Z,2.53
2022-08-23T10:51:19.922Z,1.45
2022-08-23T10:54:00.120Z,1.73
2022-08-23T10:56:28.681Z,1.77
2022-08-23T10:59:07.530Z,1.50
2022-08-23T11:02:15.765Z,1.70
2022-08-23T11:05:10.314Z,1.50
2022-08-23T11:07:42.002Z,1.40
2022-08-23T11:10:31.114Z,1.63
2022-08-23T11:13:08.563Z,1.52
2022-08-23T11:15:45.562Z,1.83
2022-08-23T11:18:48.495Z,1.52
2022-08-23T11:21:18.283Z,1.70
2022-08-23T11:23:49.641Z,1.58
2022-08-23T11:26:22.892Z,1.58
2022-08-23T11:28:51.435Z,1.50
2022-08-23T11:31:32.318Z,1.50
2022-08-23T11:34:11.411Z,1.25
2022-08-23T11:36:39.424Z,1.60
2022-08-23T11:39:06.072Z,1.60
2022-08-23T11:41:36.868Z,1.50
2022-08-23T11:44:03.761Z,1.50
2022-08-23T11:46:51.441Z,1.58
2022-08-23T11:49:33.209Z,1.48
2022-08-23T11:52:06.279Z,1.33
2022-08-23T11:54:59.424Z,1.75
2022-08-23T11:57:56.973Z,1.60
2022-08-23T12:00:52.719Z,1.58
2022-08-23T12:03:32.434Z,1.48
2022-08-23T12:06:40.472Z,1.45
2022-08-23T12:09:22.710Z,1.92
2022-08-23T12:11:55.542Z,1.30
2022-08-23T12:14:30.988Z,1.30
2022-08-23T12:17:12.985Z,1.50
2022-08-23T12:20:16.242Z,1.60
2022-08-23T12:23:15.554Z,1.30
2022-08-23T12:25:43.350Z,1.40
2022-08-23T12:28:22.017Z,1.38
2022-08-23T12:31:14.928Z,1.43
2022-08-23T12:34:08.071Z,1.50
2022-08-23T12:36:58.776Z,1.33
2022-08-23T12:39:37.024Z,1.45
2022-08-23T12:42:14.076Z,1.50
2022-08-23T12:44:41.327Z,1.45
2022-08-23T12:47:21.577Z,1.33
2022-08-23T12:50:02.297Z,1.48
2022-08-23T12:52:34.324Z,1.25
2022-08-23T12:55:01.201Z,1.20
2022-08-23T12:57:37.433Z,1.42
2022-08-23T13:00:56.426Z,1.60
2022-08-23T13:03:44.763Z,1.50
2022-08-23T13:06:15.000Z,1.48
2022-08-23T13:08:47.494Z,1.70
2022-08-23T13:11:18.888Z,1.13
2022-08-23T13:13:48.424Z,1.38
2022-08-23T13:19:23.813Z,1.60
2022-08-23T13:22:08.973Z,1.50
2022-08-23T13:24:39.409Z,1.70
2022-08-23T13:27:29.661Z,1.60
2022-08-23T13:30:09.612Z,1.65
2022-08-23T13:32:42.452Z,1.48
2022-08-23T13:35:57.593Z,1.65
2022-08-23T13:38:32.034Z,1.55
2022-08-23T13:41:10.963Z,1.52
2022-08-23T13:43:43.641Z,1.70
2022-08-23T13:46:23.749Z,1.50
2022-08-23T13:48:57.462Z,1.30
2022-08-23T13:51:31.961Z,1.98
2022-08-23T13:54:01.662Z,1.50
2022-08-23T13:56:30.393Z,1.50
2022-08-23T13:59:01.099Z,1.30
2022-08-23T14:01:29.486Z,1.60
2022-08-23T14:03:56.374Z,1.45
2022-08-23T14:06:24.272Z,1.25
2022-08-23T14:08:51.201Z,1.35
2022-08-23T14:11:18.490Z,1.52
2022-08-23T14:13:48.074Z,1.73
2022-08-23T14:19:54.548Z,1.10
2022-08-23T14:21:50.231Z,1.50
2022-08-23T14:24:19.268Z,1.30
2022-08-23T14:26:51.567Z,1.55
2022-08-23T14:29:22.893Z,1.67
2022-08-23T14:31:51.678Z,1.40
2022-08-23T14:34:18.950Z,1.30
2022-08-23T14:39:33.020Z,1.40
2022-08-23T14:42:00.038Z,1.40
2022-08-23T14:44:31.596Z,1.70
2022-08-23T14:47:00.568Z,1.70
2022-08-23T14:49:27.557Z,1.27
2022-08-23T14:51:54.690Z,1.45
2022-08-23T14:54:24.837Z,1.60
2022-08-23T14:56:53.298Z,1.55
2022-08-23T14:59:20.794Z,1.60
2022-08-23T15:01:50.413Z,1.50
2022-08-23T15:04:20.245Z,1.40
2022-08-23T15:07:14.168Z,1.60
2022-08-23T15:09:34.949Z,1.20
2022-08-23T15:14:49.186Z,1.65
2022-08-23T15:17:16.292Z,1.48
2022-08-23T15:19:43.051Z,1.75
2022-08-23T15:22:21.512Z,1.77
2022-08-23T15:24:49.729Z,1.45
2022-08-23T15:27:18.798Z,1.40
2022-08-23T15:29:45.753Z,1.30
2022-08-23T15:32:12.893Z,1.67
2022-08-23T15:34:46.288Z,1.55
2022-08-23T15:37:13.813Z,1.83
2022-08-23T15:39:42.320Z,1.58
2022-08-23T15:42:09.250Z,1.40
2022-08-23T15:44:36.484Z,1.40
2022-08-23T15:47:05.678Z,1.48
2022-08-23T15:49:36.381Z,1.55
2022-08-23T15:52:04.139Z,1.70
2022-08-23T15:54:31.376Z,1.35
2022-08-23T15:56:58.162Z,1.50
2022-08-23T15:59:25.493Z,1.65
2022-08-23T16:01:52.291Z,1.30
2022-08-23T16:04:19.486Z,1.50
2022-08-23T16:06:46.529Z,1.63
2022-08-23T16:09:21.151Z,1.45
2022-08-23T16:11:48.334Z,1.52
2022-08-23T16:14:15.453Z,1.67
2022-08-23T16:16:46.283Z,1.45
2022-08-23T16:19:14.331Z,1.50
2022-08-23T16:21:43.408Z,1.85
2022-08-23T16:24:10.469Z,1.70
2022-08-23T16:26:39.352Z,1.60
2022-08-23T16:29:13.545Z,1.65
2022-08-23T16:31:41.716Z,1.60
2022-08-23T16:34:13.492Z,1.65
2022-08-23T16:36:43.724Z,1.15
2022-08-23T16:39:10.762Z,1.23
2022-08-23T16:41:37.820Z,1.52
2022-08-23T16:44:04.639Z,1.48
2022-08-23T16:46:31.759Z,1.50
2022-08-23T16:48:58.476Z,1.50
2022-08-23T16:51:26.022Z,1.50
2022-08-23T16:54:01.814Z,1.90
2022-08-23T16:56:34.857Z,1.70
2022-08-23T16:59:04.136Z,1.60
2022-08-23T17:01:42.420Z,1.73
2022-08-23T17:04:09.113Z,1.58
2022-08-23T17:06:36.154Z,1.33
2022-08-23T17:09:03.062Z,1.75
2022-08-23T17:11:32.887Z,1.55
2022-08-23T17:14:05.060Z,1.10
2022-08-23T17:16:33.227Z,1.20
2022-08-23T17:19:00.437Z,1.10
2022-08-23T17:21:28.877Z,1.50
2022-08-23T17:23:56.215Z,1.52
2022-08-23T17:26:23.280Z,1.50
2022-08-23T17:28:50.285Z,1.45
2022-08-23T17:31:18.302Z,1.40
2022-08-23T17:33:45.271Z,1.50
2022-08-23T17:36:27.731Z,1.27
2022-08-23T17:38:56.954Z,1.23
2022-08-23T17:41:25.453Z,1.30
2022-08-23T17:43:52.255Z,1.48
2022-08-23T17:46:20.743Z,1.60
2022-08-23T17:48:47.736Z,1.17
2022-08-23T17:51:14.593Z,1.60
2022-08-23T17:53:41.566Z,1.15
2022-08-23T17:56:11.677Z,1.27
2022-08-23T17:58:39.358Z,1.33
2022-08-23T18:01:06.757Z,1.65
2022-08-23T18:03:33.745Z,1.33
2022-08-23T18:06:01.559Z,1.38
2022-08-23T18:08:44.423Z,1.38
2022-08-23T18:11:11.976Z,1.60
2022-08-23T18:13:38.800Z,1.60
2022-08-23T18:16:06.624Z,1.75
2022-08-23T18:18:34.208Z,1.35
2022-08-23T18:21:05.937Z,1.88
2022-08-23T18:23:32.988Z,1.85
2022-08-23T18:26:31.855Z,1.92
2022-08-23T18:28:58.893Z,1.90
2022-08-23T18:31:27.334Z,1.50
2022-08-23T18:34:00.214Z,1.50
2022-08-23T18:36:28.927Z,1.77
2022-08-23T18:38:56.226Z,2.10
2022-08-23T18:41:23.841Z,2.08
2022-08-23T18:43:51.983Z,2.40
2022-08-23T18:46:18.915Z,2.08
2022-08-23T18:48:53.261Z,2.10
2022-08-23T18:51:22.193Z,2.03
2022-08-23T18:53:49.259Z,2.50
2022-08-23T18:56:16.073Z,2.58
2022-08-23T18:58:43.118Z,2.22
2022-08-23T19:01:23.362Z,2.00
2022-08-23T19:03:51.440Z,2.58
2022-08-23T19:06:18.420Z,2.67
2022-08-23T19:08:45.667Z,2.33
2022-08-23T19:11:12.634Z,2.22
2022-08-23T19:13:40.118Z,3.17
2022-08-23T19:16:12.604Z,2.10
2022-08-23T19:18:41.017Z,3.03
2022-08-23T19:21:08.156Z,2.20
2022-08-23T19:23:35.837Z,2.40
2022-08-23T19:26:04.906Z,2.47
2022-08-23T19:28:33.929Z,2.75
2022-08-23T19:31:00.927Z,2.97
2022-08-23T19:33:29.590Z,2.45
2022-08-23T19:35:58.746Z,2.83
2022-08-23T19:38:28.149Z,2.47
2022-08-23T19:40:56.500Z,2.50
2022-08-23T19:43:24.718Z,2.85
2022-08-23T19:45:52.804Z,2.53
2022-08-23T19:48:20.361Z,2.75
2022-08-23T19:50:48.157Z,2.92
2022-08-23T19:53:15.232Z,3.25
2022-08-23T19:55:44.791Z,2.50
2022-08-23T19:58:13.903Z,2.90
2022-08-23T20:00:41.232Z,3.63
2022-08-23T20:03:07.970Z,2.92
2022-08-23T20:05:35.131Z,2.75
2022-08-23T20:08:01.978Z,2.95
2022-08-23T20:10:29.023Z,3.05
2022-08-23T20:12:55.717Z,2.95
2022-08-23T20:15:22.792Z,4.03
2022-08-23T20:17:49.657Z,3.03
2022-08-23T20:20:16.797Z,3.10
2022-08-23T20:23:02.274Z,2.92
2022-08-23T20:25:30.928Z,3.17
2022-08-23T20:27:57.793Z,3.55
2022-08-23T20:30:25.027Z,2.97
2022-08-23T20:32:51.746Z,2.63
2022-08-23T20:35:18.762Z,3.25
2022-08-23T20:37:45.441Z,3.28
2022-08-23T20:40:14.787Z,3.15
2022-08-23T20:42:41.620Z,3.00
2022-08-23T20:45:09.067Z,2.88
2022-08-23T20:47:36.495Z,3.22
2022-08-23T20:50:04.560Z,3.22
2022-08-23T20:52:34.563Z,3.63
2022-08-23T20:55:01.918Z,3.50
2022-08-23T20:57:36.779Z,3.50
2022-08-23T21:00:07.164Z,3.25
2022-08-23T21:02:34.289Z,3.08
2022-08-23T21:05:01.428Z,3.47
2022-08-23T21:07:31.600Z,3.67
2022-08-23T21:09:58.701Z,3.45
2022-08-23T21:12:26.053Z,3.30
2022-08-23T21:14:53.048Z,3.50
2022-08-23T21:17:19.722Z,3.38
2022-08-23T21:19:46.707Z,3.63
2022-08-23T21:22:13.381Z,3.72
2022-08-23T21:24:40.574Z,3.28
2022-08-23T21:27:09.938Z,3.78
2022-08-23T21:29:37.992Z,3.33
2022-08-23T21:32:05.330Z,3.45
2022-08-23T21:34:32.354Z,3.35
2022-08-23T21:36:59.073Z,3.20
2022-08-23T21:39:26.418Z,2.70
2022-08-23T21:41:55.666Z,3.10
2022-08-23T21:44:22.807Z,3.20
2022-08-23T21:46:49.484Z,2.88
2022-08-23T21:49:17.073Z,3.03
2022-08-23T21:51:44.919Z,3.17
2022-08-23T21:54:13.348Z,3.42
2022-08-23T21:56:41.244Z,3.30
2022-08-23T21:59:12.636Z,3.42
2022-08-23T22:01:39.753Z,3.00
2022-08-23T22:04:08.060Z,2.67
2022-08-23T22:06:36.651Z,2.90
2022-08-23T22:09:06.513Z,2.50
2022-08-23T22:11:40.771Z,3.03
2022-08-23T22:14:13.769Z,3.20
2022-08-23T22:16:41.264Z,2.92
2022-08-23T22:19:07.924Z,3.10
2022-08-23T22:21:35.816Z,3.53
2022-08-23T22:24:02.955Z,3.75
2022-08-23T22:26:30.122Z,3.35
2022-08-23T22:28:57.156Z,3.22
2022-08-23T22:31:24.376Z,3.30
2022-08-23T22:33:51.908Z,2.90
2022-08-23T22:36:21.258Z,3.30
2022-08-23T22:38:48.424Z,3.00
2022-08-23T22:41:18.343Z,2.85
2022-08-23T22:43:45.743Z,3.35
2022-08-23T22:46:13.946Z,2.63
2022-08-23T22:48:41.194Z,2.70
2022-08-23T22:51:12.791Z,3.03
2022-08-23T22:53:43.095Z,3.10
2022-08-23T22:56:23.615Z,3.28
2022-08-23T22:58:52.863Z,4.00
2022-08-23T23:01:35.464Z,3.90
2022-08-23T23:04:04.390Z,3.78
2022-08-23T23:06:31.109Z,3.53
2022-08-23T23:08:58.211Z,3.20
2022-08-23T23:11:26.264Z,3.80
2022-08-23T23:13:53.967Z,3.40
2022-08-23T23:16:24.800Z,3.28
2022-08-23T23:19:11.418Z,3.50
2022-08-23T23:21:41.983Z,3.30
2022-08-23T23:24:10.974Z,3.95
2022-08-23T23:26:38.353Z,3.10
2022-08-23T23:29:06.748Z,3.00
2022-08-23T23:31:33.885Z,3.42
2022-08-23T23:34:00.924Z,3.15
2022-08-23T23:36:27.799Z,3.20
2022-08-23T23:38:54.955Z,3.17
2022-08-23T23:41:22.023Z,3.20
2022-08-23T23:43:49.133Z,3.95
2022-08-23T23:46:18.765Z,3.47
2022-08-23T23:48:47.281Z,3.10
2022-08-23T23:51:22.680Z,2.80
2022-08-23T23:53:50.781Z,3.08
2022-08-23T23:56:18.430Z,3.10
2022-08-23T23:58:46.644Z,3.35
